Airfield :
LOGIN :

Register | Disclaimer

   EN    FR    IT 

 










Legend :    VFR   Marginal VFR   IFR   Intensive IFR   Very Intensive IFR
Visi :
Ceiling :
>= 8 km
>= 3000ft
5 to 8 km
1000 to 3000 ft
1500m to 5 km
500 to 1000 ft
800 to 1500m
200 to 500 ft
< 800m
< 200 ft
Symbols :   Thunderstorms  Fog  Heavy snow  Heavy precipitations  Wind > 20 kt
SIGMETs :     Misc.  Thunderstorms  Icing  Turbulence  Mountain Waves  Volcanic Ashes






- Airport Elevation : 140 ft


ESTL - Ljungbyhed

CURRENT METAR :
  • 291320Z 26008KT 220V290 CAVOK 24/14 Q1019

EXPIRED METARs :
  • 291250Z 26006KT 230V320 9999 SCT049 25/13 Q1019
  • 291220Z VRB03KT CAVOK 25/12 Q1019
  • 291150Z 29004KT 250V350 9999 FEW037 SCT061 24/11 Q1019
  • 291120Z VRB03KT 9999 FEW045 SCT055 24/13 Q1019
  • 291050Z 00000KT 9999 FEW041 SCT049 23/11 Q1019

TAF TAF ESTL
Valid from the 29 at 12:00 until the 29 at 15:00 UTC


291101Z 2912/2915 VRB02KT 9999 SCT045



MET'MAP, your aeronautical weather chart ! - Copyright ORBIFLY December 2007 - Disclaimer

ORBIFLY MET'MAP TEAM :

Programming & Development : Alexandra Zaïnal
Original concept : Baudouin d'Aumeries
Technical & hardware support : Manuel Goepfert
Assistance : Marc-Olivier Méhu




SOURCES & CREDITS :

   NOAA